sensor_id;sensor_type;location;lat;lon;timestamp;P1;durP1;ratioP1;P2;durP2;ratioP2
62056;SDS011;48016;50.284;18.860;2023-02-23T00:01:23;62.80;;;28.10;;
62056;SDS011;48016;50.284;18.860;2023-02-23T00:03:53;53.60;;;26.60;;
62056;SDS011;48016;50.284;18.860;2023-02-23T00:06:22;56.00;;;26.70;;
62056;SDS011;48016;50.284;18.860;2023-02-23T00:08:50;48.30;;;25.40;;
62056;SDS011;48016;50.284;18.860;2023-02-23T00:11:19;49.20;;;23.50;;
62056;SDS011;48016;50.284;18.860;2023-02-23T00:13:47;56.00;;;27.10;;
62056;SDS011;48016;50.284;18.860;2023-02-23T00:16:16;60.10;;;27.00;;
62056;SDS011;48016;50.284;18.860;2023-02-23T00:18:48;58.60;;;25.10;;
62056;SDS011;48016;50.284;18.860;2023-02-23T00:21:21;47.40;;;24.00;;
62056;SDS011;48016;50.284;18.860;2023-02-23T00:23:55;54.90;;;25.70;;
62056;SDS011;48016;50.284;18.860;2023-02-23T00:26:52;52.10;;;24.80;;
62056;SDS011;48016;50.284;18.860;2023-02-23T00:29:20;49.10;;;23.00;;
62056;SDS011;48016;50.284;18.860;2023-02-23T00:31:49;51.20;;;23.60;;
62056;SDS011;48016;50.284;18.860;2023-02-23T00:34:18;48.20;;;23.00;;
62056;SDS011;48016;50.284;18.860;2023-02-23T00:36:48;47.80;;;22.50;;
62056;SDS011;48016;50.284;18.860;2023-02-23T00:39:20;45.90;;;21.30;;
62056;SDS011;48016;50.284;18.860;2023-02-23T00:41:52;41.90;;;19.60;;
62056;SDS011;48016;50.284;18.860;2023-02-23T00:44:20;48.00;;;23.00;;
62056;SDS011;48016;50.284;18.860;2023-02-23T00:46:49;43.30;;;22.70;;
62056;SDS011;48016;50.284;18.860;2023-02-23T00:51:43;46.90;;;22.60;;
62056;SDS011;48016;50.284;18.860;2023-02-23T00:54:11;44.20;;;21.90;;
62056;SDS011;48016;50.284;18.860;2023-02-23T00:56:39;51.10;;;23.40;;
62056;SDS011;48016;50.284;18.860;2023-02-23T00:59:06;47.90;;;23.30;;
62056;SDS011;48016;50.284;18.860;2023-02-23T01:01:33;41.20;;;20.90;;
62056;SDS011;48016;50.284;18.860;2023-02-23T01:04:00;45.40;;;22.10;;
62056;SDS011;48016;50.284;18.860;2023-02-23T01:06:27;48.20;;;23.10;;
62056;SDS011;48016;50.284;18.860;2023-02-23T01:08:54;40.50;;;20.00;;
62056;SDS011;48016;50.284;18.860;2023-02-23T01:11:26;40.20;;;20.80;;
62056;SDS011;48016;50.284;18.860;2023-02-23T01:13:55;40.90;;;20.20;;
62056;SDS011;48016;50.284;18.860;2023-02-23T01:16:24;38.00;;;19.60;;
62056;SDS011;48016;50.284;18.860;2023-02-23T01:18:54;36.40;;;18.80;;
62056;SDS011;48016;50.284;18.860;2023-02-23T01:21:23;41.20;;;20.30;;
62056;SDS011;48016;50.284;18.860;2023-02-23T01:23:52;36.20;;;18.00;;
62056;SDS011;48016;50.284;18.860;2023-02-23T01:26:21;34.30;;;18.30;;
62056;SDS011;48016;50.284;18.860;2023-02-23T01:28:50;37.10;;;17.60;;
62056;SDS011;48016;50.284;18.860;2023-02-23T01:31:18;32.30;;;16.90;;
62056;SDS011;48016;50.284;18.860;2023-02-23T01:33:46;33.30;;;17.30;;
62056;SDS011;48016;50.284;18.860;2023-02-23T01:36:13;30.50;;;16.00;;
62056;SDS011;48016;50.284;18.860;2023-02-23T01:38:40;32.80;;;15.90;;
62056;SDS011;48016;50.284;18.860;2023-02-23T01:41:06;38.30;;;19.30;;
62056;SDS011;48016;50.284;18.860;2023-02-23T01:43:34;33.10;;;17.40;;
62056;SDS011;48016;50.284;18.860;2023-02-23T01:46:02;35.20;;;16.40;;
62056;SDS011;48016;50.284;18.860;2023-02-23T01:48:34;31.90;;;16.50;;
62056;SDS011;48016;50.284;18.860;2023-02-23T01:54:01;37.00;;;18.40;;
62056;SDS011;48016;50.284;18.860;2023-02-23T01:56:35;33.10;;;18.20;;
62056;SDS011;48016;50.284;18.860;2023-02-23T01:59:09;39.00;;;18.40;;
62056;SDS011;48016;50.284;18.860;2023-02-23T02:01:40;33.40;;;15.90;;
62056;SDS011;48016;50.284;18.860;2023-02-23T02:04:08;34.70;;;17.00;;
62056;SDS011;48016;50.284;18.860;2023-02-23T02:06:42;30.60;;;16.30;;
62056;SDS011;48016;50.284;18.860;2023-02-23T02:09:14;31.50;;;15.20;;
62056;SDS011;48016;50.284;18.860;2023-02-23T02:11:42;26.70;;;14.30;;
62056;SDS011;48016;50.284;18.860;2023-02-23T02:14:16;30.70;;;14.80;;
62056;SDS011;48016;50.284;18.860;2023-02-23T02:24:38;28.40;;;14.00;;
62056;SDS011;48016;50.284;18.860;2023-02-23T02:27:32;26.50;;;14.20;;
62056;SDS011;48016;50.284;18.860;2023-02-23T02:46:59;30.70;;;15.50;;
62056;SDS011;48016;50.284;18.860;2023-02-23T02:52:19;33.90;;;15.40;;
62056;SDS011;48016;50.284;18.860;2023-02-23T02:55:02;30.10;;;14.70;;
62056;SDS011;48016;50.284;18.860;2023-02-23T02:57:34;35.00;;;14.20;;
62056;SDS011;48016;50.284;18.860;2023-02-23T03:00:03;28.80;;;14.70;;
62056;SDS011;48016;50.284;18.860;2023-02-23T03:02:48;32.80;;;14.70;;
62056;SDS011;48016;50.284;18.860;2023-02-23T03:05:42;28.00;;;14.20;;
62056;SDS011;48016;50.284;18.860;2023-02-23T03:11:26;28.40;;;13.60;;
62056;SDS011;48016;50.284;18.860;2023-02-23T03:17:26;24.30;;;13.80;;
62056;SDS011;48016;50.284;18.860;2023-02-23T03:20:23;30.00;;;14.30;;
62056;SDS011;48016;50.284;18.860;2023-02-23T03:32:38;26.00;;;12.50;;
62056;SDS011;48016;50.284;18.860;2023-02-23T03:35:25;27.10;;;12.80;;
62056;SDS011;48016;50.284;18.860;2023-02-23T03:38:16;21.10;;;10.90;;
62056;SDS011;48016;50.284;18.860;2023-02-23T03:41:07;19.60;;;9.70;;
62056;SDS011;48016;50.284;18.860;2023-02-23T03:43:57;26.10;;;12.70;;
62056;SDS011;48016;50.284;18.860;2023-02-23T03:46:46;25.40;;;11.90;;
62056;SDS011;48016;50.284;18.860;2023-02-23T03:49:33;24.20;;;11.90;;
62056;SDS011;48016;50.284;18.860;2023-02-23T03:52:28;23.70;;;11.90;;
62056;SDS011;48016;50.284;18.860;2023-02-23T03:55:22;25.00;;;13.20;;
62056;SDS011;48016;50.284;18.860;2023-02-23T03:58:12;24.10;;;12.60;;
62056;SDS011;48016;50.284;18.860;2023-02-23T04:01:01;20.10;;;10.40;;
62056;SDS011;48016;50.284;18.860;2023-02-23T04:03:49;26.30;;;12.70;;
62056;SDS011;48016;50.284;18.860;2023-02-23T04:06:38;26.10;;;13.40;;
62056;SDS011;48016;50.284;18.860;2023-02-23T04:09:26;31.80;;;14.40;;
62056;SDS011;48016;50.284;18.860;2023-02-23T04:12:13;27.80;;;12.90;;
62056;SDS011;48016;50.284;18.860;2023-02-23T04:15:12;23.30;;;11.40;;
62056;SDS011;48016;50.284;18.860;2023-02-23T04:17:59;26.90;;;13.70;;
62056;SDS011;48016;50.284;18.860;2023-02-23T04:20:28;29.00;;;13.60;;
62056;SDS011;48016;50.284;18.860;2023-02-23T04:22:55;21.50;;;10.70;;
62056;SDS011;48016;50.284;18.860;2023-02-23T04:25:22;24.10;;;11.70;;
62056;SDS011;48016;50.284;18.860;2023-02-23T04:27:49;25.60;;;13.90;;
62056;SDS011;48016;50.284;18.860;2023-02-23T04:30:16;24.40;;;13.60;;
62056;SDS011;48016;50.284;18.860;2023-02-23T04:32:45;27.70;;;13.00;;
62056;SDS011;48016;50.284;18.860;2023-02-23T04:35:12;24.50;;;12.50;;
62056;SDS011;48016;50.284;18.860;2023-02-23T04:37:39;26.10;;;12.10;;
62056;SDS011;48016;50.284;18.860;2023-02-23T04:40:06;28.00;;;13.40;;
62056;SDS011;48016;50.284;18.860;2023-02-23T04:42:33;23.30;;;12.40;;
62056;SDS011;48016;50.284;18.860;2023-02-23T04:45:00;25.00;;;12.70;;
62056;SDS011;48016;50.284;18.860;2023-02-23T04:47:26;26.70;;;12.90;;
62056;SDS011;48016;50.284;18.860;2023-02-23T04:49:53;26.20;;;13.50;;
62056;SDS011;48016;50.284;18.860;2023-02-23T04:52:20;30.50;;;14.60;;
62056;SDS011;48016;50.284;18.860;2023-02-23T04:54:46;26.70;;;14.70;;
62056;SDS011;48016;50.284;18.860;2023-02-23T04:57:13;26.30;;;13.10;;
62056;SDS011;48016;50.284;18.860;2023-02-23T04:59:40;22.70;;;12.40;;
62056;SDS011;48016;50.284;18.860;2023-02-23T05:02:07;26.60;;;13.30;;
62056;SDS011;48016;50.284;18.860;2023-02-23T05:04:34;24.00;;;12.50;;
62056;SDS011;48016;50.284;18.860;2023-02-23T05:07:01;25.50;;;13.80;;
62056;SDS011;48016;50.284;18.860;2023-02-23T05:09:29;25.10;;;13.30;;
62056;SDS011;48016;50.284;18.860;2023-02-23T05:11:56;27.80;;;13.80;;
62056;SDS011;48016;50.284;18.860;2023-02-23T05:14:23;25.10;;;12.90;;
62056;SDS011;48016;50.284;18.860;2023-02-23T05:16:50;26.80;;;13.50;;
62056;SDS011;48016;50.284;18.860;2023-02-23T05:19:17;26.10;;;12.60;;
62056;SDS011;48016;50.284;18.860;2023-02-23T05:21:43;25.60;;;13.50;;
62056;SDS011;48016;50.284;18.860;2023-02-23T05:24:10;25.70;;;13.10;;
62056;SDS011;48016;50.284;18.860;2023-02-23T05:26:37;25.00;;;13.10;;
62056;SDS011;48016;50.284;18.860;2023-02-23T05:29:04;26.90;;;14.30;;
62056;SDS011;48016;50.284;18.860;2023-02-23T05:31:31;26.80;;;13.80;;
62056;SDS011;48016;50.284;18.860;2023-02-23T05:33:59;25.10;;;13.60;;
62056;SDS011;48016;50.284;18.860;2023-02-23T05:36:26;28.90;;;13.70;;
62056;SDS011;48016;50.284;18.860;2023-02-23T05:38:53;31.60;;;15.00;;
62056;SDS011;48016;50.284;18.860;2023-02-23T05:41:20;29.10;;;15.60;;
62056;SDS011;48016;50.284;18.860;2023-02-23T05:43:49;29.30;;;15.00;;
62056;SDS011;48016;50.284;18.860;2023-02-23T05:46:19;30.10;;;14.40;;
62056;SDS011;48016;50.284;18.860;2023-02-23T05:48:49;32.30;;;16.00;;
62056;SDS011;48016;50.284;18.860;2023-02-23T05:51:20;31.40;;;14.70;;
62056;SDS011;48016;50.284;18.860;2023-02-23T05:53:47;36.30;;;15.70;;
62056;SDS011;48016;50.284;18.860;2023-02-23T05:56:15;32.90;;;16.00;;
62056;SDS011;48016;50.284;18.860;2023-02-23T05:58:47;33.40;;;16.50;;
62056;SDS011;48016;50.284;18.860;2023-02-23T06:01:15;34.20;;;17.20;;
62056;SDS011;48016;50.284;18.860;2023-02-23T06:03:43;34.50;;;16.30;;
62056;SDS011;48016;50.284;18.860;2023-02-23T06:06:10;29.40;;;15.90;;
62056;SDS011;48016;50.284;18.860;2023-02-23T06:08:37;30.80;;;15.80;;
62056;SDS011;48016;50.284;18.860;2023-02-23T06:11:05;28.10;;;14.70;;
62056;SDS011;48016;50.284;18.860;2023-02-23T06:13:32;28.10;;;14.30;;
62056;SDS011;48016;50.284;18.860;2023-02-23T06:15:59;30.30;;;14.70;;
62056;SDS011;48016;50.284;18.860;2023-02-23T06:18:26;31.20;;;15.00;;
62056;SDS011;48016;50.284;18.860;2023-02-23T06:20:54;27.30;;;14.60;;
62056;SDS011;48016;50.284;18.860;2023-02-23T06:23:24;32.10;;;16.70;;
62056;SDS011;48016;50.284;18.860;2023-02-23T06:25:51;27.80;;;14.90;;
62056;SDS011;48016;50.284;18.860;2023-02-23T06:28:18;31.10;;;14.10;;
62056;SDS011;48016;50.284;18.860;2023-02-23T06:30:44;33.10;;;16.10;;
62056;SDS011;48016;50.284;18.860;2023-02-23T06:33:12;30.80;;;15.20;;
62056;SDS011;48016;50.284;18.860;2023-02-23T06:35:38;30.50;;;15.70;;
62056;SDS011;48016;50.284;18.860;2023-02-23T06:38:05;30.80;;;16.00;;
62056;SDS011;48016;50.284;18.860;2023-02-23T06:40:32;29.70;;;14.20;;
62056;SDS011;48016;50.284;18.860;2023-02-23T06:42:59;32.70;;;15.00;;
62056;SDS011;48016;50.284;18.860;2023-02-23T06:45:25;32.30;;;16.50;;
62056;SDS011;48016;50.284;18.860;2023-02-23T06:47:52;32.70;;;16.50;;
62056;SDS011;48016;50.284;18.860;2023-02-23T06:50:19;32.50;;;17.20;;
62056;SDS011;48016;50.284;18.860;2023-02-23T06:52:46;33.40;;;15.90;;
62056;SDS011;48016;50.284;18.860;2023-02-23T06:55:14;34.30;;;16.50;;
62056;SDS011;48016;50.284;18.860;2023-02-23T06:57:42;31.10;;;16.20;;
62056;SDS011;48016;50.284;18.860;2023-02-23T07:00:10;35.00;;;16.90;;
62056;SDS011;48016;50.284;18.860;2023-02-23T07:02:42;33.40;;;16.60;;
62056;SDS011;48016;50.284;18.860;2023-02-23T07:05:11;32.10;;;16.40;;
62056;SDS011;48016;50.284;18.860;2023-02-23T07:07:37;29.70;;;16.60;;
62056;SDS011;48016;50.284;18.860;2023-02-23T07:10:04;32.70;;;17.40;;
62056;SDS011;48016;50.284;18.860;2023-02-23T07:14:58;37.20;;;17.90;;
62056;SDS011;48016;50.284;18.860;2023-02-23T07:17:25;33.40;;;17.90;;
62056;SDS011;48016;50.284;18.860;2023-02-23T07:19:52;32.50;;;16.90;;
62056;SDS011;48016;50.284;18.860;2023-02-23T07:22:19;37.80;;;18.20;;
62056;SDS011;48016;50.284;18.860;2023-02-23T07:24:47;34.30;;;18.10;;
62056;SDS011;48016;50.284;18.860;2023-02-23T07:27:14;33.40;;;16.20;;
62056;SDS011;48016;50.284;18.860;2023-02-23T07:29:41;34.40;;;18.20;;
62056;SDS011;48016;50.284;18.860;2023-02-23T07:32:07;31.30;;;18.40;;
62056;SDS011;48016;50.284;18.860;2023-02-23T07:34:35;33.70;;;18.20;;
62056;SDS011;48016;50.284;18.860;2023-02-23T07:37:03;31.00;;;17.30;;
62056;SDS011;48016;50.284;18.860;2023-02-23T07:39:29;33.30;;;19.00;;
62056;SDS011;48016;50.284;18.860;2023-02-23T07:41:57;35.40;;;18.50;;
62056;SDS011;48016;50.284;18.860;2023-02-23T07:44:23;33.30;;;18.20;;
62056;SDS011;48016;50.284;18.860;2023-02-23T07:46:50;33.90;;;17.90;;
62056;SDS011;48016;50.284;18.860;2023-02-23T07:49:18;31.90;;;16.60;;
62056;SDS011;48016;50.284;18.860;2023-02-23T07:51:44;31.20;;;18.20;;
62056;SDS011;48016;50.284;18.860;2023-02-23T07:54:11;34.90;;;18.80;;
62056;SDS011;48016;50.284;18.860;2023-02-23T07:56:38;30.60;;;16.60;;
62056;SDS011;48016;50.284;18.860;2023-02-23T07:59:05;36.70;;;19.20;;
62056;SDS011;48016;50.284;18.860;2023-02-23T08:01:32;38.30;;;19.70;;
62056;SDS011;48016;50.284;18.860;2023-02-23T08:03:58;31.50;;;16.20;;
62056;SDS011;48016;50.284;18.860;2023-02-23T08:06:26;40.30;;;19.80;;
62056;SDS011;48016;50.284;18.860;2023-02-23T08:08:53;37.40;;;19.50;;
62056;SDS011;48016;50.284;18.860;2023-02-23T08:11:19;35.50;;;19.60;;
62056;SDS011;48016;50.284;18.860;2023-02-23T08:13:46;37.70;;;20.00;;
62056;SDS011;48016;50.284;18.860;2023-02-23T08:16:13;32.60;;;18.90;;
62056;SDS011;48016;50.284;18.860;2023-02-23T08:18:41;31.00;;;18.10;;
62056;SDS011;48016;50.284;18.860;2023-02-23T08:21:08;34.50;;;18.50;;
62056;SDS011;48016;50.284;18.860;2023-02-23T08:23:34;30.40;;;18.50;;
62056;SDS011;48016;50.284;18.860;2023-02-23T08:26:01;33.60;;;19.80;;
62056;SDS011;48016;50.284;18.860;2023-02-23T08:28:28;33.40;;;18.60;;
62056;SDS011;48016;50.284;18.860;2023-02-23T08:30:56;41.90;;;21.00;;
62056;SDS011;48016;50.284;18.860;2023-02-23T08:33:24;34.30;;;18.90;;
62056;SDS011;48016;50.284;18.860;2023-02-23T08:35:51;35.20;;;19.50;;
62056;SDS011;48016;50.284;18.860;2023-02-23T08:38:18;38.90;;;20.20;;
62056;SDS011;48016;50.284;18.860;2023-02-23T08:40:45;34.70;;;17.80;;
62056;SDS011;48016;50.284;18.860;2023-02-23T08:43:12;41.80;;;21.60;;
62056;SDS011;48016;50.284;18.860;2023-02-23T08:45:39;36.40;;;19.30;;
62056;SDS011;48016;50.284;18.860;2023-02-23T08:48:06;40.50;;;20.50;;
62056;SDS011;48016;50.284;18.860;2023-02-23T08:50:34;38.90;;;21.10;;
62056;SDS011;48016;50.284;18.860;2023-02-23T08:53:01;41.20;;;21.40;;
62056;SDS011;48016;50.284;18.860;2023-02-23T08:55:28;34.20;;;19.50;;
62056;SDS011;48016;50.284;18.860;2023-02-23T08:57:55;32.30;;;17.50;;
62056;SDS011;48016;50.284;18.860;2023-02-23T09:00:21;33.20;;;18.30;;
62056;SDS011;48016;50.284;18.860;2023-02-23T09:02:48;34.00;;;17.70;;
62056;SDS011;48016;50.284;18.860;2023-02-23T09:05:15;30.10;;;18.20;;
62056;SDS011;48016;50.284;18.860;2023-02-23T09:07:44;34.60;;;18.10;;
62056;SDS011;48016;50.284;18.860;2023-02-23T09:10:12;37.90;;;19.80;;
62056;SDS011;48016;50.284;18.860;2023-02-23T09:12:41;33.70;;;18.30;;
62056;SDS011;48016;50.284;18.860;2023-02-23T09:15:08;33.90;;;19.20;;
62056;SDS011;48016;50.284;18.860;2023-02-23T09:17:35;34.70;;;18.50;;
62056;SDS011;48016;50.284;18.860;2023-02-23T09:20:03;40.60;;;19.90;;
62056;SDS011;48016;50.284;18.860;2023-02-23T09:22:31;35.90;;;19.80;;
62056;SDS011;48016;50.284;18.860;2023-02-23T09:24:57;35.30;;;19.00;;
62056;SDS011;48016;50.284;18.860;2023-02-23T09:27:24;40.80;;;20.60;;
62056;SDS011;48016;50.284;18.860;2023-02-23T09:29:51;37.50;;;21.70;;
62056;SDS011;48016;50.284;18.860;2023-02-23T09:32:17;42.30;;;22.20;;
62056;SDS011;48016;50.284;18.860;2023-02-23T09:34:44;37.80;;;20.70;;
62056;SDS011;48016;50.284;18.860;2023-02-23T09:37:13;38.70;;;20.20;;
62056;SDS011;48016;50.284;18.860;2023-02-23T09:39:41;33.50;;;19.50;;
62056;SDS011;48016;50.284;18.860;2023-02-23T09:47:44;35.30;;;19.00;;
62056;SDS011;48016;50.284;18.860;2023-02-23T09:50:21;34.80;;;19.30;;
62056;SDS011;48016;50.284;18.860;2023-02-23T09:52:52;43.80;;;22.60;;
62056;SDS011;48016;50.284;18.860;2023-02-23T09:55:23;44.50;;;21.70;;
62056;SDS011;48016;50.284;18.860;2023-02-23T09:57:51;38.60;;;22.10;;
62056;SDS011;48016;50.284;18.860;2023-02-23T10:00:23;40.80;;;24.00;;
62056;SDS011;48016;50.284;18.860;2023-02-23T10:03:28;40.80;;;23.50;;
62056;SDS011;48016;50.284;18.860;2023-02-23T10:05:58;45.30;;;23.30;;
62056;SDS011;48016;50.284;18.860;2023-02-23T10:11:44;37.50;;;21.60;;
62056;SDS011;48016;50.284;18.860;2023-02-23T10:14:29;39.90;;;22.30;;
62056;SDS011;48016;50.284;18.860;2023-02-23T10:17:14;41.60;;;22.00;;
62056;SDS011;48016;50.284;18.860;2023-02-23T10:22:38;42.20;;;22.80;;
62056;SDS011;48016;50.284;18.860;2023-02-23T10:25:16;42.00;;;22.40;;
62056;SDS011;48016;50.284;18.860;2023-02-23T10:27:48;36.00;;;20.50;;
62056;SDS011;48016;50.284;18.860;2023-02-23T10:30:17;35.50;;;20.10;;
62056;SDS011;48016;50.284;18.860;2023-02-23T10:32:58;37.00;;;21.90;;
62056;SDS011;48016;50.284;18.860;2023-02-23T10:35:27;35.00;;;21.10;;
62056;SDS011;48016;50.284;18.860;2023-02-23T10:37:56;29.70;;;17.50;;
62056;SDS011;48016;50.284;18.860;2023-02-23T10:40:27;28.90;;;17.50;;
62056;SDS011;48016;50.284;18.860;2023-02-23T10:42:56;31.60;;;18.50;;
62056;SDS011;48016;50.284;18.860;2023-02-23T10:45:25;28.00;;;16.60;;
62056;SDS011;48016;50.284;18.860;2023-02-23T10:48:01;29.80;;;19.10;;
62056;SDS011;48016;50.284;18.860;2023-02-23T10:50:31;31.80;;;19.10;;
62056;SDS011;48016;50.284;18.860;2023-02-23T10:56:02;30.20;;;19.30;;
62056;SDS011;48016;50.284;18.860;2023-02-23T10:58:40;28.60;;;18.80;;
62056;SDS011;48016;50.284;18.860;2023-02-23T11:01:12;30.40;;;18.80;;
62056;SDS011;48016;50.284;18.860;2023-02-23T11:03:44;33.40;;;19.00;;
62056;SDS011;48016;50.284;18.860;2023-02-23T11:06:26;31.20;;;17.90;;
62056;SDS011;48016;50.284;18.860;2023-02-23T11:11:56;26.10;;;16.10;;
62056;SDS011;48016;50.284;18.860;2023-02-23T11:14:24;30.10;;;18.80;;
62056;SDS011;48016;50.284;18.860;2023-02-23T11:16:54;33.40;;;18.40;;
62056;SDS011;48016;50.284;18.860;2023-02-23T11:22:03;30.40;;;18.40;;
62056;SDS011;48016;50.284;18.860;2023-02-23T11:24:35;33.70;;;18.80;;
62056;SDS011;48016;50.284;18.860;2023-02-23T11:27:06;28.60;;;16.50;;
62056;SDS011;48016;50.284;18.860;2023-02-23T11:29:46;25.10;;;15.10;;
62056;SDS011;48016;50.284;18.860;2023-02-23T11:32:26;27.50;;;15.50;;
62056;SDS011;48016;50.284;18.860;2023-02-23T11:37:42;27.60;;;16.40;;
62056;SDS011;48016;50.284;18.860;2023-02-23T11:40:20;29.20;;;17.60;;
62056;SDS011;48016;50.284;18.860;2023-02-23T11:42:50;26.40;;;15.60;;
62056;SDS011;48016;50.284;18.860;2023-02-23T11:45:23;29.50;;;17.40;;
62056;SDS011;48016;50.284;18.860;2023-02-23T11:47:53;25.60;;;15.60;;
62056;SDS011;48016;50.284;18.860;2023-02-23T11:50:29;26.60;;;16.70;;
62056;SDS011;48016;50.284;18.860;2023-02-23T11:53:00;31.40;;;17.70;;
62056;SDS011;48016;50.284;18.860;2023-02-23T11:55:30;30.20;;;16.40;;
62056;SDS011;48016;50.284;18.860;2023-02-23T12:00:37;25.10;;;14.10;;
62056;SDS011;48016;50.284;18.860;2023-02-23T12:03:04;25.60;;;15.40;;
62056;SDS011;48016;50.284;18.860;2023-02-23T12:05:32;25.50;;;14.90;;
62056;SDS011;48016;50.284;18.860;2023-02-23T12:08:10;26.80;;;15.20;;
62056;SDS011;48016;50.284;18.860;2023-02-23T12:10:42;24.80;;;14.90;;
62056;SDS011;48016;50.284;18.860;2023-02-23T12:15:59;23.90;;;15.20;;
62056;SDS011;48016;50.284;18.860;2023-02-23T12:32:48;21.90;;;11.70;;
62056;SDS011;48016;50.284;18.860;2023-02-23T12:35:24;21.50;;;12.90;;
62056;SDS011;48016;50.284;18.860;2023-02-23T12:41:09;24.40;;;12.20;;
62056;SDS011;48016;50.284;18.860;2023-02-23T12:43:40;21.40;;;13.20;;
62056;SDS011;48016;50.284;18.860;2023-02-23T12:54:00;24.30;;;13.30;;
62056;SDS011;48016;50.284;18.860;2023-02-23T12:59:52;19.90;;;12.60;;
62056;SDS011;48016;50.284;18.860;2023-02-23T13:02:31;22.90;;;11.80;;
62056;SDS011;48016;50.284;18.860;2023-02-23T13:05:06;19.00;;;11.90;;
62056;SDS011;48016;50.284;18.860;2023-02-23T13:07:47;23.00;;;14.10;;
62056;SDS011;48016;50.284;18.860;2023-02-23T13:11:02;21.20;;;13.20;;
62056;SDS011;48016;50.284;18.860;2023-02-23T13:16:15;22.00;;;11.40;;
62056;SDS011;48016;50.284;18.860;2023-02-23T13:18:45;25.30;;;12.30;;
62056;SDS011;48016;50.284;18.860;2023-02-23T13:26:41;20.20;;;12.00;;
62056;SDS011;48016;50.284;18.860;2023-02-23T13:29:33;24.10;;;12.90;;
62056;SDS011;48016;50.284;18.860;2023-02-23T13:32:08;20.60;;;12.50;;
62056;SDS011;48016;50.284;18.860;2023-02-23T13:34:57;24.90;;;13.30;;
62056;SDS011;48016;50.284;18.860;2023-02-23T13:37:27;28.40;;;14.30;;
62056;SDS011;48016;50.284;18.860;2023-02-23T13:40:01;21.80;;;13.70;;
62056;SDS011;48016;50.284;18.860;2023-02-23T13:43:17;24.20;;;13.60;;
62056;SDS011;48016;50.284;18.860;2023-02-23T13:48:56;23.50;;;13.50;;
62056;SDS011;48016;50.284;18.860;2023-02-23T13:54:03;26.40;;;12.70;;
62056;SDS011;48016;50.284;18.860;2023-02-23T13:56:33;29.80;;;14.20;;
62056;SDS011;48016;50.284;18.860;2023-02-23T14:05:00;23.20;;;13.20;;
62056;SDS011;48016;50.284;18.860;2023-02-23T14:07:38;22.10;;;12.40;;
62056;SDS011;48016;50.284;18.860;2023-02-23T14:10:13;23.80;;;12.90;;
62056;SDS011;48016;50.284;18.860;2023-02-23T14:13:05;22.30;;;12.80;;
62056;SDS011;48016;50.284;18.860;2023-02-23T14:15:40;24.60;;;12.50;;
62056;SDS011;48016;50.284;18.860;2023-02-23T14:23:47;19.00;;;11.50;;
62056;SDS011;48016;50.284;18.860;2023-02-23T14:31:52;19.60;;;11.40;;
62056;SDS011;48016;50.284;18.860;2023-02-23T14:34:20;19.90;;;11.90;;
62056;SDS011;48016;50.284;18.860;2023-02-23T14:36:50;20.50;;;12.10;;
62056;SDS011;48016;50.284;18.860;2023-02-23T14:39:22;22.70;;;11.70;;
62056;SDS011;48016;50.284;18.860;2023-02-23T14:41:53;19.60;;;11.10;;
62056;SDS011;48016;50.284;18.860;2023-02-23T14:47:10;21.50;;;12.80;;
62056;SDS011;48016;50.284;18.860;2023-02-23T14:49:41;24.30;;;13.50;;
62056;SDS011;48016;50.284;18.860;2023-02-23T14:54:50;22.40;;;12.40;;
62056;SDS011;48016;50.284;18.860;2023-02-23T14:57:19;28.00;;;15.20;;
62056;SDS011;48016;50.284;18.860;2023-02-23T14:59:58;21.80;;;13.10;;
62056;SDS011;48016;50.284;18.860;2023-02-23T15:02:27;20.90;;;12.70;;
62056;SDS011;48016;50.284;18.860;2023-02-23T15:04:56;22.40;;;13.10;;
62056;SDS011;48016;50.284;18.860;2023-02-23T15:07:30;24.50;;;14.70;;
62056;SDS011;48016;50.284;18.860;2023-02-23T15:09:58;23.00;;;14.30;;
62056;SDS011;48016;50.284;18.860;2023-02-23T15:12:27;26.20;;;13.90;;
62056;SDS011;48016;50.284;18.860;2023-02-23T15:15:01;24.70;;;14.20;;
62056;SDS011;48016;50.284;18.860;2023-02-23T15:17:31;22.20;;;13.40;;
62056;SDS011;48016;50.284;18.860;2023-02-23T15:20:04;26.60;;;15.00;;
62056;SDS011;48016;50.284;18.860;2023-02-23T15:22:35;24.90;;;14.30;;
62056;SDS011;48016;50.284;18.860;2023-02-23T15:25:14;21.90;;;12.80;;
62056;SDS011;48016;50.284;18.860;2023-02-23T15:27:44;26.50;;;14.70;;
62056;SDS011;48016;50.284;18.860;2023-02-23T15:30:24;24.60;;;14.30;;
62056;SDS011;48016;50.284;18.860;2023-02-23T15:33:04;24.10;;;14.30;;
62056;SDS011;48016;50.284;18.860;2023-02-23T15:35:45;24.30;;;13.80;;
62056;SDS011;48016;50.284;18.860;2023-02-23T15:38:19;26.40;;;14.80;;
62056;SDS011;48016;50.284;18.860;2023-02-23T15:40:51;24.80;;;14.50;;
62056;SDS011;48016;50.284;18.860;2023-02-23T15:43:21;21.90;;;13.60;;
62056;SDS011;48016;50.284;18.860;2023-02-23T15:45:49;26.80;;;13.80;;
62056;SDS011;48016;50.284;18.860;2023-02-23T15:48:20;22.00;;;13.10;;
62056;SDS011;48016;50.284;18.860;2023-02-23T15:50:51;24.40;;;13.90;;
62056;SDS011;48016;50.284;18.860;2023-02-23T15:53:25;24.80;;;14.10;;
62056;SDS011;48016;50.284;18.860;2023-02-23T15:55:56;23.20;;;13.30;;
62056;SDS011;48016;50.284;18.860;2023-02-23T15:58:36;24.00;;;13.80;;
62056;SDS011;48016;50.284;18.860;2023-02-23T16:01:09;23.90;;;13.50;;
62056;SDS011;48016;50.284;18.860;2023-02-23T16:03:38;23.80;;;13.80;;
62056;SDS011;48016;50.284;18.860;2023-02-23T16:06:23;25.00;;;14.30;;
62056;SDS011;48016;50.284;18.860;2023-02-23T16:09:19;29.70;;;15.80;;
62056;SDS011;48016;50.284;18.860;2023-02-23T16:11:59;29.30;;;16.20;;
62056;SDS011;48016;50.284;18.860;2023-02-23T16:14:34;26.70;;;15.10;;
62056;SDS011;48016;50.284;18.860;2023-02-23T16:17:33;28.20;;;14.90;;
62056;SDS011;48016;50.284;18.860;2023-02-23T16:20:18;30.20;;;17.50;;
62056;SDS011;48016;50.284;18.860;2023-02-23T16:22:48;35.80;;;19.70;;
62056;SDS011;48016;50.284;18.860;2023-02-23T16:25:20;30.40;;;18.30;;
62056;SDS011;48016;50.284;18.860;2023-02-23T16:27:54;33.50;;;19.60;;
62056;SDS011;48016;50.284;18.860;2023-02-23T16:33:02;39.30;;;21.80;;
62056;SDS011;48016;50.284;18.860;2023-02-23T16:35:45;40.00;;;24.00;;
62056;SDS011;48016;50.284;18.860;2023-02-23T16:40:53;37.60;;;21.40;;
62056;SDS011;48016;50.284;18.860;2023-02-23T16:43:20;39.60;;;21.70;;
62056;SDS011;48016;50.284;18.860;2023-02-23T16:45:47;35.40;;;19.80;;
62056;SDS011;48016;50.284;18.860;2023-02-23T16:48:15;41.60;;;21.90;;
62056;SDS011;48016;50.284;18.860;2023-02-23T16:50:43;43.80;;;22.40;;
62056;SDS011;48016;50.284;18.860;2023-02-23T16:53:11;49.10;;;23.20;;
62056;SDS011;48016;50.284;18.860;2023-02-23T16:55:40;48.60;;;24.20;;
62056;SDS011;48016;50.284;18.860;2023-02-23T16:58:15;51.80;;;25.60;;
62056;SDS011;48016;50.284;18.860;2023-02-23T17:00:45;45.30;;;23.50;;
62056;SDS011;48016;50.284;18.860;2023-02-23T17:03:16;49.60;;;24.60;;
62056;SDS011;48016;50.284;18.860;2023-02-23T17:05:46;45.40;;;23.60;;